Kezdőlap
METAR-TAF:

METAR-TAF

Repülőterek :

Anoka County-Blaine Airport (Janes Field)

Minneapolis-Blaine, Minnesota, Amerikai Egyesült Államok

földrajzi szélesség: 45-09N, földrajzi hosszúság: 093-13W, magasság: 278 m

Jelenlegi meteorológiai megfigyelések

A jelentés 26 perccel ezelõtt készült, 09:15 UTC
Szélcsend
Hőmérséklet -13°C
Páratartalom 78%
Légköri nyomás 1036 hPa
Látótávolság: 4.0 km
Borult 5500 lábon
enyhe havazás

METAR: KANE 200915Z AUTO 00000KT 2 1/2SM -SN OVC055 M13/M16 A3058 RMK AO2 VIS 2V4

Idő: 03:41 (09:41 UTC)


TAF: hiányzik

Meteorológiai megfigyelések és előrejelzések több, mint 4000 repülőtéren (METAR és TAF jelentéseket).

A térképen piros és sárga pontok jelzik az elérhető meteorológiai állomásokat.

Mozgassa az egeret a pont fölött, hogy megjelenjen az állomás neve.

Azután kattintson az időjárási megfigyelések és előrejelzések megtekintéséhez.

A térkép megváltoztatása: kattintson a fekete keresztel jelölt zöld gombra ráközelítéshez, a vonallal jelölt zöld gombra távolításhoz, vagy a zöld nyilakra a szomszédos térképek eléréséhez.


METAR-TAF: